createdAt,value
2022-10-18T00:02:37.839Z,13.02
2022-10-18T00:05:39.997Z,12.77
2022-10-18T00:08:42.317Z,13.40
2022-10-18T00:11:44.520Z,12.80
2022-10-18T00:14:50.330Z,12.20
2022-10-18T00:17:52.481Z,12.25
2022-10-18T00:21:05.762Z,13.10
2022-10-18T00:24:08.110Z,13.50
2022-10-18T00:27:10.318Z,12.23
2022-10-18T00:30:12.623Z,12.52
2022-10-18T00:33:14.766Z,12.90
2022-10-18T00:36:17.256Z,12.82
2022-10-18T00:39:21.186Z,12.45
2022-10-18T00:42:26.855Z,12.77
2022-10-18T00:45:29.086Z,12.57
2022-10-18T00:48:31.331Z,12.18
2022-10-18T00:51:41.465Z,12.18
2022-10-18T00:54:46.178Z,12.35
2022-10-18T00:57:49.350Z,12.77
2022-10-18T01:00:51.527Z,12.43
2022-10-18T01:03:54.918Z,12.38
2022-10-18T01:07:34.747Z,12.40
2022-10-18T01:10:49.518Z,11.75
2022-10-18T01:14:30.139Z,11.70
2022-10-18T01:17:55.104Z,12.13
2022-10-18T01:21:09.601Z,12.35
2022-10-18T01:24:47.212Z,11.95
2022-10-18T01:27:57.346Z,11.73
2022-10-18T01:31:23.541Z,11.50
2022-10-18T01:34:31.403Z,11.38
2022-10-18T01:37:37.597Z,10.98
2022-10-18T01:40:42.398Z,11.18
2022-10-18T01:43:49.273Z,11.25
2022-10-18T01:46:54.537Z,11.17
2022-10-18T01:49:59.999Z,11.20
2022-10-18T01:53:02.572Z,10.85
2022-10-18T01:56:25.425Z,11.27
2022-10-18T01:59:46.809Z,11.15
2022-10-18T02:03:07.049Z,10.87
2022-10-18T02:06:35.517Z,10.77
2022-10-18T02:09:46.155Z,10.50
2022-10-18T02:12:52.464Z,10.90
2022-10-18T02:15:59.918Z,10.50
2022-10-18T02:19:17.997Z,10.90
2022-10-18T02:22:24.098Z,11.60
2022-10-18T02:25:30.251Z,10.75
2022-10-18T02:28:32.504Z,10.50
2022-10-18T02:31:49.350Z,10.32
2022-10-18T02:35:06.456Z,9.90
2022-10-18T02:38:11.525Z,10.05
2022-10-18T02:41:22.847Z,10.18
2022-10-18T02:44:25.480Z,10.35
2022-10-18T02:47:27.643Z,10.18
2022-10-18T02:50:29.852Z,10.00
2022-10-18T02:53:31.993Z,9.75
2022-10-18T02:56:34.904Z,10.48
2022-10-18T02:59:37.080Z,10.02
2022-10-18T03:02:39.254Z,10.30
2022-10-18T03:05:41.413Z,10.70
2022-10-18T03:08:43.618Z,10.00
2022-10-18T03:11:45.786Z,9.70
2022-10-18T03:14:47.924Z,9.88
2022-10-18T03:17:50.077Z,9.90
2022-10-18T03:20:52.207Z,9.60
2022-10-18T03:23:54.411Z,9.50
2022-10-18T03:26:56.614Z,9.70
2022-10-18T03:29:59.864Z,9.65
2022-10-18T03:33:02.033Z,9.85
2022-10-18T03:36:04.330Z,9.07
2022-10-18T03:39:06.608Z,9.95
2022-10-18T03:42:08.945Z,9.63
2022-10-18T03:45:11.361Z,8.98
2022-10-18T03:48:13.558Z,9.25
2022-10-18T03:51:15.758Z,9.50
2022-10-18T03:54:18.013Z,9.13
2022-10-18T03:57:20.322Z,9.10
2022-10-18T04:00:22.840Z,9.45
2022-10-18T04:03:25.025Z,9.45
2022-10-18T04:06:27.202Z,9.53
2022-10-18T04:09:29.675Z,9.25
2022-10-18T04:12:32.151Z,9.00
2022-10-18T04:15:34.904Z,8.57
2022-10-18T04:18:37.175Z,8.98
2022-10-18T04:21:39.949Z,8.33
2022-10-18T04:24:42.152Z,8.60
2022-10-18T04:27:44.697Z,9.30
2022-10-18T04:30:53.473Z,8.73
2022-10-18T04:33:55.687Z,9.18
2022-10-18T04:36:57.929Z,9.03
2022-10-18T04:40:00.100Z,9.23
2022-10-18T04:43:02.244Z,8.70
2022-10-18T04:46:04.439Z,9.07
2022-10-18T04:49:06.664Z,9.43
2022-10-18T04:52:09.172Z,9.10
2022-10-18T04:55:11.387Z,9.30
2022-10-18T04:58:13.606Z,8.73
2022-10-18T05:01:17.210Z,8.82
2022-10-18T05:04:19.547Z,9.13
2022-10-18T05:07:21.890Z,8.50
2022-10-18T05:10:24.096Z,8.80
2022-10-18T05:13:26.550Z,9.10
2022-10-18T05:16:28.726Z,8.70
2022-10-18T05:19:30.942Z,9.90
2022-10-18T05:22:33.338Z,9.50
2022-10-18T05:25:43.954Z,9.35
2022-10-18T05:28:46.178Z,9.75
2022-10-18T05:31:49.091Z,10.15
2022-10-18T05:34:51.323Z,10.00
2022-10-18T05:37:53.539Z,10.07
2022-10-18T05:40:55.714Z,11.18
2022-10-18T05:43:58.013Z,9.63
2022-10-18T05:47:00.296Z,10.02
2022-10-18T05:50:02.472Z,9.32
2022-10-18T05:53:12.520Z,9.23
2022-10-18T05:56:20.715Z,9.05
2022-10-18T05:59:23.006Z,8.88
2022-10-18T06:02:26.199Z,9.10
2022-10-18T06:05:28.502Z,9.52
2022-10-18T06:08:30.900Z,10.10
2022-10-18T06:11:33.562Z,9.88
2022-10-18T06:14:37.308Z,10.32
2022-10-18T06:17:39.502Z,9.35
2022-10-18T06:20:41.691Z,9.45
2022-10-18T06:23:44.023Z,9.83
2022-10-18T06:26:46.268Z,9.35
2022-10-18T06:29:48.425Z,9.55
2022-10-18T06:32:50.594Z,9.15
2022-10-18T06:36:01.221Z,8.38
2022-10-18T06:39:03.448Z,8.93
2022-10-18T06:42:05.586Z,9.23
2022-10-18T06:45:10.043Z,9.20
2022-10-18T06:48:12.280Z,9.25
2022-10-18T06:51:15.366Z,8.75
2022-10-18T06:54:18.702Z,9.10
2022-10-18T06:57:21.780Z,8.82
2022-10-18T07:00:24.253Z,9.02
2022-10-18T07:03:27.286Z,9.18
2022-10-18T07:06:29.501Z,8.50
2022-10-18T07:09:31.678Z,8.27
2022-10-18T07:12:34.251Z,9.30
2022-10-18T07:15:38.602Z,8.25
2022-10-18T07:18:45.709Z,9.15
2022-10-18T07:21:47.941Z,8.65
2022-10-18T07:24:50.359Z,9.33
2022-10-18T07:27:53.110Z,8.95
2022-10-18T07:30:56.081Z,10.10
2022-10-18T07:33:58.269Z,8.80
2022-10-18T07:37:01.955Z,8.45
2022-10-18T07:40:04.494Z,8.67
2022-10-18T07:43:11.419Z,9.73
2022-10-18T07:46:15.815Z,9.35
2022-10-18T07:49:18.140Z,9.63
2022-10-18T07:52:20.316Z,9.10
2022-10-18T07:55:22.472Z,8.77
2022-10-18T07:58:24.726Z,9.38
2022-10-18T08:01:26.987Z,8.30
2022-10-18T08:04:29.230Z,8.85
2022-10-18T08:07:33.571Z,9.80
2022-10-18T08:10:36.371Z,11.33
2022-10-18T08:13:38.897Z,12.43
2022-10-18T08:16:41.085Z,11.32
2022-10-18T08:19:52.829Z,10.65
2022-10-18T08:23:05.533Z,9.18
2022-10-18T08:26:13.868Z,9.03
2022-10-18T08:29:23.259Z,9.32
2022-10-18T08:32:27.433Z,9.10
2022-10-18T08:35:29.622Z,9.05
2022-10-18T08:38:33.349Z,9.68
2022-10-18T08:41:41.489Z,9.20
2022-10-18T08:44:51.499Z,9.18
2022-10-18T08:47:57.292Z,9.85
2022-10-18T08:51:00.665Z,8.32
2022-10-18T08:54:07.580Z,8.63
2022-10-18T08:57:18.291Z,8.90
2022-10-18T09:00:22.920Z,8.65
2022-10-18T09:03:34.352Z,9.10
2022-10-18T09:06:51.541Z,8.98
2022-10-18T09:10:21.650Z,8.57
2022-10-18T09:14:01.334Z,8.07
2022-10-18T09:17:28.133Z,8.25
2022-10-18T09:20:54.674Z,7.80
2022-10-18T09:24:11.383Z,8.15
2022-10-18T09:27:19.050Z,7.82
2022-10-18T09:30:40.779Z,8.30
2022-10-18T09:33:46.323Z,7.75
2022-10-18T09:36:51.880Z,7.43
2022-10-18T09:40:02.954Z,7.07
2022-10-18T09:43:21.654Z,6.68
2022-10-18T09:46:30.408Z,6.53
2022-10-18T09:49:45.647Z,7.40
2022-10-18T09:53:07.749Z,6.25
2022-10-18T09:56:15.076Z,6.72
2022-10-18T09:59:35.255Z,6.97
2022-10-18T10:02:37.475Z,6.83
2022-10-18T10:05:39.673Z,6.30
2022-10-18T10:08:44.733Z,6.47
2022-10-18T10:11:49.552Z,7.25
2022-10-18T10:14:51.736Z,6.60
2022-10-18T10:17:57.088Z,7.17
2022-10-18T10:21:02.528Z,7.13
2022-10-18T10:24:04.898Z,7.10
2022-10-18T10:27:15.430Z,6.90
2022-10-18T10:30:33.667Z,7.13
2022-10-18T10:33:38.227Z,6.90
2022-10-18T10:36:49.271Z,6.50
2022-10-18T10:40:31.312Z,6.43
2022-10-18T10:43:39.410Z,5.97
2022-10-18T10:46:43.239Z,6.30
2022-10-18T10:49:48.934Z,6.27
2022-10-18T10:52:51.933Z,6.07
2022-10-18T10:55:56.302Z,6.28
2022-10-18T10:59:08.650Z,6.20
2022-10-18T11:02:21.350Z,6.18
2022-10-18T11:05:29.434Z,5.70
2022-10-18T11:08:36.166Z,6.40
2022-10-18T11:11:43.412Z,5.35
2022-10-18T11:14:50.524Z,5.28
2022-10-18T11:18:19.657Z,6.35
2022-10-18T11:21:29.241Z,5.90
2022-10-18T11:24:31.648Z,6.18
2022-10-18T11:27:57.541Z,5.55
2022-10-18T11:31:41.823Z,5.60
2022-10-18T11:35:02.665Z,5.85
2022-10-18T11:38:25.735Z,5.43
2022-10-18T11:41:36.945Z,5.75
2022-10-18T11:45:07.248Z,5.70
2022-10-18T11:48:50.687Z,5.00
2022-10-18T11:52:31.111Z,5.38
2022-10-18T11:55:39.298Z,5.17
2022-10-18T11:59:02.926Z,5.80
2022-10-18T12:02:17.282Z,5.60
2022-10-18T12:05:24.558Z,5.60
2022-10-18T12:08:42.457Z,5.28
2022-10-18T12:11:55.697Z,5.93
2022-10-18T12:15:16.790Z,5.28
2022-10-18T12:18:23.183Z,5.18
2022-10-18T12:21:29.330Z,5.68
2022-10-18T12:24:33.142Z,5.75
2022-10-18T12:27:44.263Z,5.57
2022-10-18T12:31:04.240Z,5.78
2022-10-18T12:34:28.239Z,5.57
2022-10-18T12:38:02.437Z,5.47
2022-10-18T12:41:05.811Z,5.45
2022-10-18T12:44:34.563Z,5.20
2022-10-18T12:47:36.833Z,5.63
2022-10-18T12:50:42.134Z,5.13
2022-10-18T12:53:55.041Z,5.53
2022-10-18T12:56:59.611Z,5.38
2022-10-18T13:00:01.821Z,5.53
2022-10-18T13:03:13.110Z,5.90
2022-10-18T13:06:15.318Z,5.80
2022-10-18T13:09:21.232Z,5.30
2022-10-18T13:12:23.325Z,5.60
2022-10-18T13:15:42.747Z,5.83
2022-10-18T13:19:10.890Z,5.18
2022-10-18T13:22:28.037Z,5.38
2022-10-18T13:26:11.459Z,5.50
2022-10-18T13:29:30.546Z,5.38
2022-10-18T13:32:36.666Z,5.57
2022-10-18T13:35:55.448Z,5.35
2022-10-18T13:39:02.143Z,4.95
2022-10-18T13:42:28.009Z,5.00
2022-10-18T13:45:33.277Z,5.20
2022-10-18T13:48:35.415Z,4.93
2022-10-18T13:51:43.342Z,4.90
2022-10-18T13:54:48.449Z,4.90
2022-10-18T13:58:24.341Z,5.13
2022-10-18T14:01:53.029Z,5.22
2022-10-18T14:05:25.353Z,4.83
2022-10-18T14:08:46.418Z,4.45
2022-10-18T14:11:52.676Z,5.20
2022-10-18T14:15:02.513Z,4.53
2022-10-18T14:18:31.817Z,4.72
2022-10-18T14:21:39.056Z,5.27
2022-10-18T14:24:46.712Z,4.78
2022-10-18T14:27:52.281Z,4.82
2022-10-18T14:31:06.384Z,4.80
2022-10-18T14:34:15.257Z,4.93
2022-10-18T14:37:36.906Z,4.87
2022-10-18T14:40:40.469Z,5.15
2022-10-18T14:43:44.290Z,4.97
2022-10-18T14:46:52.282Z,4.88
2022-10-18T14:49:54.909Z,4.80
2022-10-18T14:52:57.154Z,4.87
2022-10-18T14:56:00.948Z,4.82
2022-10-18T14:59:10.509Z,4.70
2022-10-18T15:02:16.067Z,4.47
2022-10-18T15:05:24.428Z,4.53
2022-10-18T15:08:32.959Z,4.63
2022-10-18T15:11:35.489Z,4.53
2022-10-18T15:14:37.981Z,4.20
2022-10-18T15:17:40.902Z,4.70
2022-10-18T15:20:43.429Z,4.28
2022-10-18T15:23:45.586Z,4.87
2022-10-18T15:26:49.875Z,4.32
2022-10-18T15:29:52.526Z,4.28
2022-10-18T15:33:01.874Z,4.43
2022-10-18T15:36:17.485Z,4.50
2022-10-18T15:39:23.600Z,4.40
2022-10-18T15:42:44.243Z,4.65
2022-10-18T15:49:18.210Z,4.90
2022-10-18T15:52:32.563Z,4.63
2022-10-18T15:55:46.449Z,4.43
2022-10-18T15:58:48.996Z,4.65
2022-10-18T16:01:51.603Z,4.78
2022-10-18T16:04:54.118Z,4.80
2022-10-18T16:07:56.290Z,4.85
2022-10-18T16:10:59.641Z,5.00
2022-10-18T16:14:01.873Z,4.90
2022-10-18T16:17:06.269Z,5.15
2022-10-18T16:20:20.177Z,4.50
2022-10-18T16:23:28.552Z,4.80
2022-10-18T16:26:31.248Z,5.00
2022-10-18T16:29:33.623Z,5.13
2022-10-18T16:32:35.774Z,5.30
2022-10-18T16:35:38.025Z,5.72
2022-10-18T16:38:40.300Z,5.70
2022-10-18T16:41:42.863Z,6.13
2022-10-18T16:44:45.436Z,6.18
2022-10-18T16:47:47.730Z,6.22
2022-10-18T16:50:50.725Z,6.28
2022-10-18T16:53:53.693Z,5.75
2022-10-18T16:56:55.920Z,6.40
2022-10-18T16:59:58.075Z,7.28
2022-10-18T17:03:00.217Z,7.03
2022-10-18T17:06:02.463Z,7.20
2022-10-18T17:09:04.670Z,7.55
2022-10-18T17:12:06.871Z,7.63
2022-10-18T17:15:09.781Z,7.80
2022-10-18T17:18:14.885Z,7.78
2022-10-18T17:21:19.638Z,8.10
2022-10-18T17:24:22.231Z,7.80
2022-10-18T17:27:24.545Z,7.50
2022-10-18T17:30:26.725Z,7.63
2022-10-18T17:33:28.969Z,7.88
2022-10-18T17:36:32.950Z,8.20
2022-10-18T17:39:35.784Z,8.27
2022-10-18T17:42:37.982Z,8.10
2022-10-18T17:45:48.143Z,8.27
2022-10-18T17:48:53.755Z,8.45
2022-10-18T17:51:55.971Z,8.50
2022-10-18T17:54:58.200Z,8.40
2022-10-18T17:58:00.478Z,9.17
2022-10-18T18:01:18.331Z,9.32
2022-10-18T18:04:20.601Z,8.70
2022-10-18T18:07:22.957Z,8.95
2022-10-18T18:10:25.267Z,9.48
2022-10-18T18:13:27.412Z,9.40
2022-10-18T18:16:30.061Z,10.00
2022-10-18T18:19:32.346Z,11.35
2022-10-18T18:22:36.862Z,11.05
2022-10-18T18:25:41.267Z,11.23
2022-10-18T18:28:43.784Z,11.30
2022-10-18T18:31:46.729Z,11.70
2022-10-18T18:34:48.896Z,12.85
2022-10-18T18:37:51.160Z,12.98
2022-10-18T18:41:23.650Z,16.75
2022-10-18T18:44:25.923Z,17.57
2022-10-18T18:47:28.075Z,16.05
2022-10-18T18:50:31.915Z,17.98
2022-10-18T18:53:34.182Z,17.13
2022-10-18T18:56:37.274Z,17.05
2022-10-18T18:59:39.446Z,17.67
2022-10-18T19:02:41.699Z,16.90
2022-10-18T19:05:44.015Z,16.75
2022-10-18T19:08:46.941Z,16.00
2022-10-18T19:11:54.840Z,15.80
2022-10-18T19:14:57.011Z,16.13
2022-10-18T19:17:59.146Z,15.70
2022-10-18T19:21:02.554Z,16.23
2022-10-18T19:24:05.657Z,15.15
2022-10-18T19:27:12.367Z,15.80
2022-10-18T19:30:14.580Z,15.60
2022-10-18T19:33:35.407Z,14.93
2022-10-18T19:36:45.985Z,14.23
2022-10-18T19:39:48.733Z,14.32
2022-10-18T19:42:50.893Z,13.48
2022-10-18T19:45:53.141Z,13.57
2022-10-18T19:48:55.416Z,13.73
2022-10-18T19:51:57.780Z,13.57
2022-10-18T19:55:00.000Z,13.38
2022-10-18T19:58:02.233Z,13.32
2022-10-18T20:01:04.532Z,12.70
2022-10-18T20:04:08.395Z,12.25
2022-10-18T20:07:10.629Z,11.88
2022-10-18T20:10:15.799Z,12.25
2022-10-18T20:13:18.317Z,11.98
2022-10-18T20:16:27.920Z,12.13
2022-10-18T20:19:30.804Z,11.68
2022-10-18T20:22:33.225Z,12.30
2022-10-18T20:25:35.591Z,11.80
2022-10-18T20:28:38.665Z,11.80
2022-10-18T20:31:40.884Z,11.87
2022-10-18T20:34:43.062Z,11.65
2022-10-18T20:37:45.358Z,12.00
2022-10-18T20:40:47.605Z,11.18
2022-10-18T20:44:11.576Z,12.07
2022-10-18T20:47:13.764Z,11.27
2022-10-18T20:50:16.078Z,12.05
2022-10-18T20:53:18.198Z,11.65
2022-10-18T20:56:22.365Z,12.02
2022-10-18T20:59:24.596Z,12.00
2022-10-18T21:02:27.491Z,12.13
2022-10-18T21:05:30.792Z,11.63
2022-10-18T21:08:32.983Z,11.45
2022-10-18T21:11:46.096Z,12.30
2022-10-18T21:14:48.529Z,11.85
2022-10-18T21:17:51.561Z,11.97
2022-10-18T21:20:54.214Z,11.63
2022-10-18T21:23:56.473Z,11.77
2022-10-18T21:27:00.309Z,12.45
2022-10-18T21:30:03.563Z,11.38
2022-10-18T21:33:07.193Z,11.80
2022-10-18T21:36:10.178Z,11.68
2022-10-18T21:39:15.372Z,12.45
2022-10-18T21:42:17.643Z,12.07
2022-10-18T21:45:19.816Z,12.02
2022-10-18T21:51:29.270Z,12.25
2022-10-18T21:54:31.511Z,11.68
2022-10-18T22:00:42.036Z,12.10
2022-10-18T22:03:45.410Z,12.63
2022-10-18T22:06:48.063Z,12.05
2022-10-18T22:09:50.261Z,12.18
2022-10-18T22:12:52.491Z,12.60
2022-10-18T22:15:54.961Z,12.50
2022-10-18T22:18:59.823Z,12.40
2022-10-18T22:22:02.021Z,12.05
2022-10-18T22:25:05.211Z,12.57
2022-10-18T22:28:07.400Z,11.95
2022-10-18T22:31:21.504Z,12.30
2022-10-18T22:34:28.933Z,11.93
2022-10-18T22:37:31.410Z,12.57
2022-10-18T22:40:33.886Z,12.50
2022-10-18T22:43:36.637Z,12.07
2022-10-18T22:46:39.929Z,13.07
2022-10-18T22:49:42.129Z,12.13
2022-10-18T22:52:44.306Z,12.52
2022-10-18T22:55:48.318Z,12.32
2022-10-18T22:58:52.852Z,11.93
2022-10-18T23:01:55.026Z,11.75
2022-10-18T23:04:57.188Z,11.87
2022-10-18T23:07:59.364Z,12.00
2022-10-18T23:11:01.536Z,12.55
2022-10-18T23:14:05.991Z,12.23
2022-10-18T23:17:08.177Z,12.05
2022-10-18T23:20:10.567Z,12.13
2022-10-18T23:23:15.657Z,12.13
2022-10-18T23:26:20.516Z,11.77
2022-10-18T23:29:22.673Z,12.23
2022-10-18T23:32:25.101Z,11.68
2022-10-18T23:35:27.319Z,12.20
2022-10-18T23:38:30.877Z,11.18
2022-10-18T23:41:33.125Z,11.45
2022-10-18T23:44:35.277Z,11.30
2022-10-18T23:47:37.432Z,11.02
2022-10-18T23:50:39.677Z,11.20
2022-10-18T23:53:42.543Z,11.85
2022-10-18T23:56:44.749Z,11.75
2022-10-18T23:59:46.895Z,11.60
